X  Chiuso Dati meteorologici dell'aviazione (METAR)     LIML Milano Linate Airport
Temperatura
13°C Temperatura
3°C Punto di rugiada
51% Umidità



Vento
5 MPH
8 KM/O
2 M/S
4 KTS



210°
SSW
Condizioni attuali

Chiaro Chiaro
Pressione 1022.01 (hPa) - 30.18 (inHg)
Visibilità 6 (miglio) - 9.7 (km)
Aeroporto
Codice-Aeroporto LIML

Posizione: Milano Linate Airport
Distanza: 6 (mi)

Metar:
LIML 181550Z 21004KT 180V240 CAVOK 13/03 Q1022 NOSIG

Ore: 18-11-2023 15:50 CET